Eden Valley, Minnesota
Current Conditions -  °F | °C
As of 12:34 AM on Tuesday 21 Oct 2014 (Local Time) from KPEX Reporting Station
Clear Clear  
Wind Chill: 41°   Ceiling: Unl
Heat Index: 41°   Visibility: 10mi
Dew Point: 37°   Wind: 3mph
Humidity: 86%   Direction: 40°NE
Pressure: 30.11"   Gusts: NA
Location:  45.33°N, 94.55°W
Report Text: KPEX 210534Z AUTO 04003KT 10SM CLR 05/03 A3011 RMK AO2 T00480026
Loading
Personal Weather Stations






























Interactive Weather Map
Tropical Storm Tracking
New forecast layout! Learn more

10-Day Weather Forecast

Advertisements
Track Severe Weather on mobile